sensor_id;sensor_type;location;lat;lon;timestamp;P1;durP1;ratioP1;P2;durP2;ratioP2
21630;SDS011;10977;46.802;11.952;2022-10-16T00:00:39;19.40;;;14.15;;
21630;SDS011;10977;46.802;11.952;2022-10-16T00:03:06;20.02;;;13.07;;
21630;SDS011;10977;46.802;11.952;2022-10-16T00:05:32;24.30;;;13.85;;
21630;SDS011;10977;46.802;11.952;2022-10-16T00:08:02;19.73;;;12.85;;
21630;SDS011;10977;46.802;11.952;2022-10-16T00:10:28;21.42;;;14.30;;
21630;SDS011;10977;46.802;11.952;2022-10-16T00:12:54;21.25;;;14.05;;
21630;SDS011;10977;46.802;11.952;2022-10-16T00:15:19;20.42;;;14.57;;
21630;SDS011;10977;46.802;11.952;2022-10-16T00:17:44;18.55;;;12.55;;
21630;SDS011;10977;46.802;11.952;2022-10-16T00:20:10;19.10;;;14.05;;
21630;SDS011;10977;46.802;11.952;2022-10-16T00:22:35;24.30;;;14.13;;
21630;SDS011;10977;46.802;11.952;2022-10-16T00:25:00;16.60;;;12.82;;
21630;SDS011;10977;46.802;11.952;2022-10-16T00:27:26;19.45;;;13.70;;
21630;SDS011;10977;46.802;11.952;2022-10-16T00:29:51;19.95;;;13.23;;
21630;SDS011;10977;46.802;11.952;2022-10-16T00:32:18;17.55;;;12.68;;
21630;SDS011;10977;46.802;11.952;2022-10-16T00:34:44;20.63;;;13.48;;
21630;SDS011;10977;46.802;11.952;2022-10-16T00:37:10;20.35;;;12.43;;
21630;SDS011;10977;46.802;11.952;2022-10-16T00:39:35;23.25;;;14.65;;
21630;SDS011;10977;46.802;11.952;2022-10-16T00:42:01;18.33;;;13.35;;
21630;SDS011;10977;46.802;11.952;2022-10-16T00:47:26;25.30;;;13.00;;
21630;SDS011;10977;46.802;11.952;2022-10-16T00:49:53;20.75;;;13.90;;
21630;SDS011;10977;46.802;11.952;2022-10-16T00:52:23;20.35;;;13.75;;
21630;SDS011;10977;46.802;11.952;2022-10-16T00:54:49;20.00;;;13.48;;
21630;SDS011;10977;46.802;11.952;2022-10-16T00:57:16;17.08;;;13.60;;
21630;SDS011;10977;46.802;11.952;2022-10-16T00:59:42;20.65;;;14.68;;
21630;SDS011;10977;46.802;11.952;2022-10-16T01:02:09;16.67;;;12.68;;
21630;SDS011;10977;46.802;11.952;2022-10-16T01:04:43;18.85;;;12.88;;
21630;SDS011;10977;46.802;11.952;2022-10-16T01:09:47;17.13;;;13.07;;
21630;SDS011;10977;46.802;11.952;2022-10-16T01:12:45;16.05;;;12.32;;
21630;SDS011;10977;46.802;11.952;2022-10-16T01:18:39;17.77;;;13.82;;
21630;SDS011;10977;46.802;11.952;2022-10-16T01:21:09;21.27;;;12.98;;
21630;SDS011;10977;46.802;11.952;2022-10-16T01:23:58;17.58;;;13.48;;
21630;SDS011;10977;46.802;11.952;2022-10-16T01:26:57;19.85;;;13.93;;
21630;SDS011;10977;46.802;11.952;2022-10-16T01:32:00;16.65;;;12.82;;
21630;SDS011;10977;46.802;11.952;2022-10-16T01:34:35;22.67;;;13.63;;
21630;SDS011;10977;46.802;11.952;2022-10-16T01:37:11;15.70;;;13.00;;
21630;SDS011;10977;46.802;11.952;2022-10-16T01:39:40;16.85;;;13.10;;
21630;SDS011;10977;46.802;11.952;2022-10-16T01:42:24;16.05;;;13.20;;
21630;SDS011;10977;46.802;11.952;2022-10-16T01:44:56;17.83;;;12.73;;
21630;SDS011;10977;46.802;11.952;2022-10-16T01:47:25;15.98;;;12.98;;
21630;SDS011;10977;46.802;11.952;2022-10-16T01:49:52;19.00;;;12.88;;
21630;SDS011;10977;46.802;11.952;2022-10-16T01:52:21;17.30;;;12.65;;
21630;SDS011;10977;46.802;11.952;2022-10-16T01:54:50;18.33;;;12.75;;
21630;SDS011;10977;46.802;11.952;2022-10-16T01:57:18;18.90;;;14.00;;
21630;SDS011;10977;46.802;11.952;2022-10-16T01:59:48;19.50;;;12.65;;
21630;SDS011;10977;46.802;11.952;2022-10-16T02:02:17;18.20;;;12.93;;
21630;SDS011;10977;46.802;11.952;2022-10-16T02:07:13;19.50;;;13.63;;
21630;SDS011;10977;46.802;11.952;2022-10-16T02:09:39;18.65;;;12.32;;
21630;SDS011;10977;46.802;11.952;2022-10-16T02:12:10;18.60;;;12.85;;
21630;SDS011;10977;46.802;11.952;2022-10-16T02:14:40;20.50;;;12.93;;
21630;SDS011;10977;46.802;11.952;2022-10-16T02:17:13;17.15;;;12.60;;
21630;SDS011;10977;46.802;11.952;2022-10-16T02:19:40;19.63;;;13.90;;
21630;SDS011;10977;46.802;11.952;2022-10-16T02:22:07;15.63;;;12.35;;
21630;SDS011;10977;46.802;11.952;2022-10-16T02:27:08;19.35;;;14.10;;
21630;SDS011;10977;46.802;11.952;2022-10-16T02:29:38;18.48;;;13.82;;
21630;SDS011;10977;46.802;11.952;2022-10-16T02:32:13;21.10;;;13.63;;
21630;SDS011;10977;46.802;11.952;2022-10-16T02:34:43;19.73;;;14.10;;
21630;SDS011;10977;46.802;11.952;2022-10-16T02:37:10;18.02;;;14.40;;
21630;SDS011;10977;46.802;11.952;2022-10-16T02:39:35;19.67;;;13.52;;
21630;SDS011;10977;46.802;11.952;2022-10-16T02:42:03;21.27;;;14.90;;
21630;SDS011;10977;46.802;11.952;2022-10-16T02:44:28;19.15;;;14.48;;
21630;SDS011;10977;46.802;11.952;2022-10-16T02:46:53;18.52;;;14.65;;
21630;SDS011;10977;46.802;11.952;2022-10-16T02:49:19;19.63;;;14.88;;
21630;SDS011;10977;46.802;11.952;2022-10-16T02:51:44;17.58;;;13.13;;
21630;SDS011;10977;46.802;11.952;2022-10-16T02:54:10;20.23;;;14.13;;
21630;SDS011;10977;46.802;11.952;2022-10-16T02:56:35;19.63;;;13.50;;
21630;SDS011;10977;46.802;11.952;2022-10-16T02:59:01;18.85;;;14.73;;
21630;SDS011;10977;46.802;11.952;2022-10-16T03:01:26;17.67;;;14.02;;
21630;SDS011;10977;46.802;11.952;2022-10-16T03:03:51;18.33;;;14.00;;
21630;SDS011;10977;46.802;11.952;2022-10-16T03:06:17;21.02;;;13.65;;
21630;SDS011;10977;46.802;11.952;2022-10-16T03:08:43;18.73;;;13.38;;
21630;SDS011;10977;46.802;11.952;2022-10-16T03:11:08;20.83;;;14.50;;
21630;SDS011;10977;46.802;11.952;2022-10-16T03:13:33;33.28;;;24.52;;
21630;SDS011;10977;46.802;11.952;2022-10-16T03:15:59;32.22;;;23.70;;
21630;SDS011;10977;46.802;11.952;2022-10-16T03:18:24;25.80;;;19.00;;
21630;SDS011;10977;46.802;11.952;2022-10-16T03:20:49;22.25;;;16.67;;
21630;SDS011;10977;46.802;11.952;2022-10-16T03:23:15;20.08;;;15.45;;
21630;SDS011;10977;46.802;11.952;2022-10-16T03:25:40;19.13;;;14.43;;
21630;SDS011;10977;46.802;11.952;2022-10-16T03:28:05;20.20;;;14.20;;
21630;SDS011;10977;46.802;11.952;2022-10-16T03:30:31;19.42;;;13.98;;
21630;SDS011;10977;46.802;11.952;2022-10-16T03:32:56;17.50;;;13.98;;
21630;SDS011;10977;46.802;11.952;2022-10-16T03:35:22;18.33;;;13.52;;
21630;SDS011;10977;46.802;11.952;2022-10-16T03:37:49;17.42;;;13.70;;
21630;SDS011;10977;46.802;11.952;2022-10-16T03:40:15;22.42;;;14.57;;
21630;SDS011;10977;46.802;11.952;2022-10-16T03:42:44;18.15;;;14.20;;
21630;SDS011;10977;46.802;11.952;2022-10-16T03:45:10;17.10;;;13.73;;
21630;SDS011;10977;46.802;11.952;2022-10-16T03:47:36;20.63;;;12.93;;
21630;SDS011;10977;46.802;11.952;2022-10-16T03:50:01;19.63;;;13.13;;
21630;SDS011;10977;46.802;11.952;2022-10-16T03:52:27;17.25;;;13.23;;
21630;SDS011;10977;46.802;11.952;2022-10-16T03:54:53;21.23;;;13.55;;
21630;SDS011;10977;46.802;11.952;2022-10-16T03:57:18;19.65;;;13.38;;
21630;SDS011;10977;46.802;11.952;2022-10-16T03:59:45;18.17;;;13.18;;
21630;SDS011;10977;46.802;11.952;2022-10-16T04:02:11;17.45;;;13.07;;
21630;SDS011;10977;46.802;11.952;2022-10-16T04:04:36;20.38;;;14.40;;
21630;SDS011;10977;46.802;11.952;2022-10-16T04:07:01;16.05;;;12.90;;
21630;SDS011;10977;46.802;11.952;2022-10-16T04:09:27;17.83;;;12.98;;
21630;SDS011;10977;46.802;11.952;2022-10-16T04:11:52;18.50;;;13.90;;
21630;SDS011;10977;46.802;11.952;2022-10-16T04:14:18;16.73;;;12.63;;
21630;SDS011;10977;46.802;11.952;2022-10-16T04:16:43;18.52;;;13.48;;
21630;SDS011;10977;46.802;11.952;2022-10-16T04:19:09;16.95;;;12.98;;
21630;SDS011;10977;46.802;11.952;2022-10-16T04:21:35;16.48;;;12.68;;
21630;SDS011;10977;46.802;11.952;2022-10-16T04:24:02;18.52;;;12.68;;
21630;SDS011;10977;46.802;11.952;2022-10-16T04:26:27;19.95;;;13.95;;
21630;SDS011;10977;46.802;11.952;2022-10-16T04:28:53;20.48;;;13.95;;
21630;SDS011;10977;46.802;11.952;2022-10-16T04:31:18;21.35;;;14.10;;
21630;SDS011;10977;46.802;11.952;2022-10-16T04:33:44;17.63;;;12.70;;
21630;SDS011;10977;46.802;11.952;2022-10-16T04:36:10;18.33;;;13.45;;
21630;SDS011;10977;46.802;11.952;2022-10-16T04:38:35;21.95;;;13.02;;
21630;SDS011;10977;46.802;11.952;2022-10-16T04:41:02;15.63;;;12.48;;
21630;SDS011;10977;46.802;11.952;2022-10-16T04:43:28;18.00;;;13.13;;
21630;SDS011;10977;46.802;11.952;2022-10-16T04:45:53;19.55;;;14.00;;
21630;SDS011;10977;46.802;11.952;2022-10-16T04:48:20;18.10;;;13.05;;
21630;SDS011;10977;46.802;11.952;2022-10-16T04:50:45;21.00;;;14.05;;
21630;SDS011;10977;46.802;11.952;2022-10-16T04:53:11;18.15;;;13.63;;
21630;SDS011;10977;46.802;11.952;2022-10-16T04:55:36;18.33;;;13.75;;
21630;SDS011;10977;46.802;11.952;2022-10-16T04:58:03;20.08;;;14.40;;
21630;SDS011;10977;46.802;11.952;2022-10-16T05:00:29;22.90;;;17.33;;
21630;SDS011;10977;46.802;11.952;2022-10-16T05:02:54;29.85;;;21.08;;
21630;SDS011;10977;46.802;11.952;2022-10-16T05:05:19;30.58;;;20.83;;
21630;SDS011;10977;46.802;11.952;2022-10-16T05:07:45;23.77;;;16.65;;
21630;SDS011;10977;46.802;11.952;2022-10-16T05:10:11;21.42;;;16.02;;
21630;SDS011;10977;46.802;11.952;2022-10-16T05:12:37;20.13;;;15.40;;
21630;SDS011;10977;46.802;11.952;2022-10-16T05:15:02;23.58;;;14.18;;
21630;SDS011;10977;46.802;11.952;2022-10-16T05:17:28;18.65;;;13.95;;
21630;SDS011;10977;46.802;11.952;2022-10-16T05:19:53;20.55;;;13.80;;
21630;SDS011;10977;46.802;11.952;2022-10-16T05:22:19;16.77;;;14.18;;
21630;SDS011;10977;46.802;11.952;2022-10-16T05:24:44;21.00;;;14.13;;
21630;SDS011;10977;46.802;11.952;2022-10-16T05:27:10;19.00;;;14.80;;
21630;SDS011;10977;46.802;11.952;2022-10-16T05:29:36;18.95;;;14.45;;
21630;SDS011;10977;46.802;11.952;2022-10-16T05:32:02;20.48;;;14.70;;
21630;SDS011;10977;46.802;11.952;2022-10-16T05:34:27;23.35;;;14.60;;
21630;SDS011;10977;46.802;11.952;2022-10-16T05:36:53;18.38;;;14.25;;
21630;SDS011;10977;46.802;11.952;2022-10-16T05:39:18;16.90;;;13.50;;
21630;SDS011;10977;46.802;11.952;2022-10-16T05:41:44;18.38;;;13.93;;
21630;SDS011;10977;46.802;11.952;2022-10-16T05:44:09;22.75;;;15.18;;
21630;SDS011;10977;46.802;11.952;2022-10-16T05:46:35;18.77;;;14.73;;
21630;SDS011;10977;46.802;11.952;2022-10-16T05:49:01;20.42;;;14.82;;
21630;SDS011;10977;46.802;11.952;2022-10-16T05:51:26;22.45;;;14.43;;
21630;SDS011;10977;46.802;11.952;2022-10-16T05:53:52;19.80;;;14.80;;
21630;SDS011;10977;46.802;11.952;2022-10-16T05:56:17;19.85;;;14.10;;
21630;SDS011;10977;46.802;11.952;2022-10-16T05:58:42;22.58;;;14.18;;
21630;SDS011;10977;46.802;11.952;2022-10-16T06:01:16;20.27;;;14.40;;
21630;SDS011;10977;46.802;11.952;2022-10-16T06:03:43;18.83;;;13.40;;
21630;SDS011;10977;46.802;11.952;2022-10-16T06:06:09;16.80;;;13.50;;
21630;SDS011;10977;46.802;11.952;2022-10-16T06:08:35;19.75;;;13.90;;
21630;SDS011;10977;46.802;11.952;2022-10-16T06:11:02;19.50;;;13.77;;
21630;SDS011;10977;46.802;11.952;2022-10-16T06:13:32;16.80;;;12.80;;
21630;SDS011;10977;46.802;11.952;2022-10-16T06:15:58;17.85;;;13.65;;
21630;SDS011;10977;46.802;11.952;2022-10-16T06:18:25;17.80;;;13.35;;
21630;SDS011;10977;46.802;11.952;2022-10-16T06:20:52;18.63;;;13.27;;
21630;SDS011;10977;46.802;11.952;2022-10-16T06:23:17;19.35;;;14.80;;
21630;SDS011;10977;46.802;11.952;2022-10-16T06:25:42;18.73;;;13.93;;
21630;SDS011;10977;46.802;11.952;2022-10-16T06:28:08;21.05;;;15.75;;
21630;SDS011;10977;46.802;11.952;2022-10-16T06:30:33;18.85;;;15.80;;
21630;SDS011;10977;46.802;11.952;2022-10-16T06:32:58;19.25;;;15.02;;
21630;SDS011;10977;46.802;11.952;2022-10-16T06:35:24;22.60;;;15.57;;
21630;SDS011;10977;46.802;11.952;2022-10-16T06:37:49;21.38;;;15.82;;
21630;SDS011;10977;46.802;11.952;2022-10-16T06:40:15;22.25;;;17.35;;
21630;SDS011;10977;46.802;11.952;2022-10-16T06:42:40;21.60;;;16.95;;
21630;SDS011;10977;46.802;11.952;2022-10-16T06:45:06;20.63;;;15.65;;
21630;SDS011;10977;46.802;11.952;2022-10-16T06:47:32;20.40;;;15.52;;
21630;SDS011;10977;46.802;11.952;2022-10-16T06:49:58;20.05;;;14.88;;
21630;SDS011;10977;46.802;11.952;2022-10-16T06:52:23;19.85;;;14.95;;
21630;SDS011;10977;46.802;11.952;2022-10-16T06:54:49;24.58;;;14.52;;
21630;SDS011;10977;46.802;11.952;2022-10-16T06:57:14;19.45;;;15.55;;
21630;SDS011;10977;46.802;11.952;2022-10-16T06:59:40;19.48;;;14.18;;
21630;SDS011;10977;46.802;11.952;2022-10-16T07:02:05;20.67;;;15.30;;
21630;SDS011;10977;46.802;11.952;2022-10-16T07:04:32;21.40;;;15.68;;
21630;SDS011;10977;46.802;11.952;2022-10-16T07:06:57;21.45;;;15.18;;
21630;SDS011;10977;46.802;11.952;2022-10-16T07:09:25;25.90;;;16.00;;
21630;SDS011;10977;46.802;11.952;2022-10-16T07:11:51;27.95;;;19.40;;
21630;SDS011;10977;46.802;11.952;2022-10-16T07:14:17;20.88;;;17.02;;
21630;SDS011;10977;46.802;11.952;2022-10-16T07:16:43;20.27;;;15.85;;
21630;SDS011;10977;46.802;11.952;2022-10-16T07:19:09;26.15;;;18.35;;
21630;SDS011;10977;46.802;11.952;2022-10-16T07:21:37;24.02;;;16.38;;
21630;SDS011;10977;46.802;11.952;2022-10-16T07:24:03;22.25;;;16.15;;
21630;SDS011;10977;46.802;11.952;2022-10-16T07:26:32;20.88;;;14.80;;
21630;SDS011;10977;46.802;11.952;2022-10-16T07:28:58;18.13;;;14.55;;
21630;SDS011;10977;46.802;11.952;2022-10-16T07:31:24;23.00;;;15.05;;
21630;SDS011;10977;46.802;11.952;2022-10-16T07:33:50;19.08;;;14.52;;
21630;SDS011;10977;46.802;11.952;2022-10-16T07:36:16;18.77;;;14.40;;
21630;SDS011;10977;46.802;11.952;2022-10-16T07:38:43;19.77;;;14.18;;
21630;SDS011;10977;46.802;11.952;2022-10-16T07:41:10;17.23;;;13.90;;
21630;SDS011;10977;46.802;11.952;2022-10-16T07:43:38;18.80;;;13.43;;
21630;SDS011;10977;46.802;11.952;2022-10-16T07:46:03;25.73;;;14.93;;
21630;SDS011;10977;46.802;11.952;2022-10-16T07:48:29;17.77;;;14.23;;
21630;SDS011;10977;46.802;11.952;2022-10-16T07:50:57;18.33;;;13.85;;
21630;SDS011;10977;46.802;11.952;2022-10-16T07:53:26;17.45;;;14.00;;
21630;SDS011;10977;46.802;11.952;2022-10-16T07:55:52;19.27;;;13.77;;
21630;SDS011;10977;46.802;11.952;2022-10-16T07:58:21;17.30;;;12.77;;
21630;SDS011;10977;46.802;11.952;2022-10-16T08:00:46;18.17;;;12.65;;
21630;SDS011;10977;46.802;11.952;2022-10-16T08:03:12;17.63;;;13.55;;
21630;SDS011;10977;46.802;11.952;2022-10-16T08:05:37;16.67;;;13.48;;
21630;SDS011;10977;46.802;11.952;2022-10-16T08:08:02;16.02;;;12.65;;
21630;SDS011;10977;46.802;11.952;2022-10-16T08:10:28;17.33;;;13.85;;
21630;SDS011;10977;46.802;11.952;2022-10-16T08:12:54;17.35;;;14.07;;
21630;SDS011;10977;46.802;11.952;2022-10-16T08:15:20;16.67;;;13.45;;
21630;SDS011;10977;46.802;11.952;2022-10-16T08:17:56;17.85;;;13.68;;
21630;SDS011;10977;46.802;11.952;2022-10-16T08:20:30;15.13;;;12.60;;
21630;SDS011;10977;46.802;11.952;2022-10-16T08:22:58;18.08;;;13.35;;
21630;SDS011;10977;46.802;11.952;2022-10-16T08:25:24;15.55;;;12.25;;
21630;SDS011;10977;46.802;11.952;2022-10-16T08:27:50;14.07;;;11.90;;
21630;SDS011;10977;46.802;11.952;2022-10-16T08:30:16;13.93;;;12.48;;
21630;SDS011;10977;46.802;11.952;2022-10-16T08:32:43;14.15;;;11.68;;
21630;SDS011;10977;46.802;11.952;2022-10-16T08:35:11;12.70;;;11.07;;
21630;SDS011;10977;46.802;11.952;2022-10-16T08:37:37;13.70;;;9.82;;
21630;SDS011;10977;46.802;11.952;2022-10-16T08:40:04;12.63;;;9.88;;
21630;SDS011;10977;46.802;11.952;2022-10-16T08:42:44;15.27;;;10.32;;
21630;SDS011;10977;46.802;11.952;2022-10-16T08:50:39;14.98;;;13.00;;
21630;SDS011;10977;46.802;11.952;2022-10-16T08:53:05;16.02;;;11.85;;
21630;SDS011;10977;46.802;11.952;2022-10-16T08:58:00;21.70;;;14.00;;
21630;SDS011;10977;46.802;11.952;2022-10-16T09:00:26;13.15;;;11.38;;
21630;SDS011;10977;46.802;11.952;2022-10-16T09:02:54;14.80;;;12.63;;
21630;SDS011;10977;46.802;11.952;2022-10-16T09:14:06;13.70;;;11.43;;
21630;SDS011;10977;46.802;11.952;2022-10-16T09:17:34;14.25;;;11.00;;
21630;SDS011;10977;46.802;11.952;2022-10-16T09:20:42;12.05;;;9.98;;
21630;SDS011;10977;46.802;11.952;2022-10-16T09:23:08;13.13;;;11.73;;
21630;SDS011;10977;46.802;11.952;2022-10-16T09:25:38;13.85;;;10.15;;
21630;SDS011;10977;46.802;11.952;2022-10-16T09:28:07;11.13;;;9.90;;
21630;SDS011;10977;46.802;11.952;2022-10-16T09:30:34;11.02;;;9.10;;
21630;SDS011;10977;46.802;11.952;2022-10-16T09:32:59;12.88;;;10.25;;
21630;SDS011;10977;46.802;11.952;2022-10-16T09:35:33;11.93;;;10.00;;
21630;SDS011;10977;46.802;11.952;2022-10-16T09:38:02;12.95;;;10.93;;
21630;SDS011;10977;46.802;11.952;2022-10-16T09:40:28;11.98;;;8.63;;
21630;SDS011;10977;46.802;11.952;2022-10-16T09:43:12;9.55;;;8.55;;
21630;SDS011;10977;46.802;11.952;2022-10-16T09:45:56;10.98;;;8.52;;
21630;SDS011;10977;46.802;11.952;2022-10-16T09:48:23;9.23;;;8.00;;
21630;SDS011;10977;46.802;11.952;2022-10-16T09:50:56;9.15;;;8.25;;
21630;SDS011;10977;46.802;11.952;2022-10-16T09:53:23;9.50;;;6.10;;
21630;SDS011;10977;46.802;11.952;2022-10-16T09:56:01;5.80;;;4.90;;
21630;SDS011;10977;46.802;11.952;2022-10-16T09:58:26;5.68;;;5.10;;
21630;SDS011;10977;46.802;11.952;2022-10-16T10:00:52;7.03;;;6.32;;
21630;SDS011;10977;46.802;11.952;2022-10-16T10:03:37;6.45;;;5.22;;
21630;SDS011;10977;46.802;11.952;2022-10-16T10:06:18;6.43;;;5.57;;
21630;SDS011;10977;46.802;11.952;2022-10-16T10:11:36;5.35;;;4.85;;
21630;SDS011;10977;46.802;11.952;2022-10-16T10:14:08;5.65;;;5.10;;
21630;SDS011;10977;46.802;11.952;2022-10-16T10:17:02;5.57;;;5.07;;
21630;SDS011;10977;46.802;11.952;2022-10-16T10:19:38;6.18;;;5.57;;
21630;SDS011;10977;46.802;11.952;2022-10-16T10:22:52;5.35;;;4.95;;
21630;SDS011;10977;46.802;11.952;2022-10-16T10:24:57;6.28;;;5.72;;
21630;SDS011;10977;46.802;11.952;2022-10-16T10:30:17;6.03;;;5.53;;
21630;SDS011;10977;46.802;11.952;2022-10-16T10:35:40;6.60;;;6.00;;
21630;SDS011;10977;46.802;11.952;2022-10-16T10:47:01;5.63;;;5.13;;
21630;SDS011;10977;46.802;11.952;2022-10-16T10:57:58;5.60;;;5.15;;
21630;SDS011;10977;46.802;11.952;2022-10-16T11:11:47;5.80;;;5.30;;
21630;SDS011;10977;46.802;11.952;2022-10-16T11:14:20;5.65;;;5.25;;
21630;SDS011;10977;46.802;11.952;2022-10-16T11:16:56;5.38;;;4.88;;
21630;SDS011;10977;46.802;11.952;2022-10-16T11:35:37;5.88;;;5.38;;
21630;SDS011;10977;46.802;11.952;2022-10-16T11:40:53;7.47;;;6.00;;
21630;SDS011;10977;46.802;11.952;2022-10-16T11:43:25;6.32;;;5.82;;
21630;SDS011;10977;46.802;11.952;2022-10-16T11:45:55;5.82;;;5.43;;
21630;SDS011;10977;46.802;11.952;2022-10-16T11:48:37;6.15;;;5.75;;
21630;SDS011;10977;46.802;11.952;2022-10-16T11:51:14;5.68;;;5.30;;
21630;SDS011;10977;46.802;11.952;2022-10-16T11:56:24;6.65;;;6.10;;
21630;SDS011;10977;46.802;11.952;2022-10-16T11:58:57;6.05;;;5.65;;
21630;SDS011;10977;46.802;11.952;2022-10-16T12:01:33;6.20;;;5.70;;
21630;SDS011;10977;46.802;11.952;2022-10-16T12:06:42;5.10;;;4.70;;
21630;SDS011;10977;46.802;11.952;2022-10-16T12:09:19;5.40;;;5.00;;
21630;SDS011;10977;46.802;11.952;2022-10-16T12:12:25;5.50;;;5.00;;
21630;SDS011;10977;46.802;11.952;2022-10-16T12:15:02;5.32;;;4.93;;
21630;SDS011;10977;46.802;11.952;2022-10-16T12:17:43;5.45;;;5.05;;
21630;SDS011;10977;46.802;11.952;2022-10-16T12:22:37;5.53;;;5.13;;
21630;SDS011;10977;46.802;11.952;2022-10-16T12:28:04;4.90;;;4.60;;
21630;SDS011;10977;46.802;11.952;2022-10-16T12:30:57;5.68;;;4.97;;
21630;SDS011;10977;46.802;11.952;2022-10-16T12:33:26;5.20;;;4.70;;
21630;SDS011;10977;46.802;11.952;2022-10-16T12:35:54;5.07;;;4.68;;
21630;SDS011;10977;46.802;11.952;2022-10-16T12:38:27;4.90;;;4.53;;
21630;SDS011;10977;46.802;11.952;2022-10-16T12:41:00;5.07;;;4.78;;
21630;SDS011;10977;46.802;11.952;2022-10-16T12:43:36;4.60;;;4.30;;
21630;SDS011;10977;46.802;11.952;2022-10-16T12:48:45;4.93;;;4.53;;
21630;SDS011;10977;46.802;11.952;2022-10-16T12:54:14;4.32;;;4.03;;
21630;SDS011;10977;46.802;11.952;2022-10-16T12:59:51;4.97;;;4.57;;
21630;SDS011;10977;46.802;11.952;2022-10-16T13:16:01;5.07;;;4.05;;
21630;SDS011;10977;46.802;11.952;2022-10-16T13:18:48;5.10;;;4.60;;
21630;SDS011;10977;46.802;11.952;2022-10-16T13:21:39;5.15;;;4.72;;
21630;SDS011;10977;46.802;11.952;2022-10-16T13:29:18;6.22;;;4.13;;
21630;SDS011;10977;46.802;11.952;2022-10-16T13:31:45;5.07;;;4.68;;
21630;SDS011;10977;46.802;11.952;2022-10-16T13:34:17;4.88;;;4.47;;
21630;SDS011;10977;46.802;11.952;2022-10-16T13:36:47;4.57;;;4.28;;
21630;SDS011;10977;46.802;11.952;2022-10-16T13:39:24;4.70;;;4.30;;
21630;SDS011;10977;46.802;11.952;2022-10-16T13:44:31;5.50;;;5.00;;
21630;SDS011;10977;46.802;11.952;2022-10-16T13:47:02;4.63;;;4.22;;
21630;SDS011;10977;46.802;11.952;2022-10-16T13:49:28;6.00;;;4.78;;
21630;SDS011;10977;46.802;11.952;2022-10-16T13:51:57;5.07;;;4.57;;
21630;SDS011;10977;46.802;11.952;2022-10-16T13:54:24;4.82;;;4.43;;
21630;SDS011;10977;46.802;11.952;2022-10-16T13:56:51;4.70;;;4.20;;
21630;SDS011;10977;46.802;11.952;2022-10-16T13:59:25;4.75;;;4.28;;
21630;SDS011;10977;46.802;11.952;2022-10-16T14:01:53;4.95;;;4.45;;
21630;SDS011;10977;46.802;11.952;2022-10-16T14:04:22;4.20;;;3.90;;
21630;SDS011;10977;46.802;11.952;2022-10-16T14:06:49;6.80;;;5.07;;
21630;SDS011;10977;46.802;11.952;2022-10-16T14:11:51;4.72;;;4.18;;
21630;SDS011;10977;46.802;11.952;2022-10-16T14:14:20;4.13;;;3.80;;
21630;SDS011;10977;46.802;11.952;2022-10-16T14:16:46;4.78;;;4.20;;
21630;SDS011;10977;46.802;11.952;2022-10-16T14:19:15;4.47;;;4.07;;
21630;SDS011;10977;46.802;11.952;2022-10-16T14:21:47;4.75;;;4.35;;
21630;SDS011;10977;46.802;11.952;2022-10-16T14:24:13;6.18;;;4.60;;
21630;SDS011;10977;46.802;11.952;2022-10-16T14:26:50;4.28;;;3.88;;
21630;SDS011;10977;46.802;11.952;2022-10-16T14:29:18;4.97;;;4.57;;
21630;SDS011;10977;46.802;11.952;2022-10-16T14:31:59;5.03;;;4.50;;
21630;SDS011;10977;46.802;11.952;2022-10-16T14:34:37;4.35;;;3.95;;
21630;SDS011;10977;46.802;11.952;2022-10-16T14:37:24;8.43;;;7.63;;
21630;SDS011;10977;46.802;11.952;2022-10-16T14:39:51;5.10;;;4.60;;
21630;SDS011;10977;46.802;11.952;2022-10-16T14:42:18;4.75;;;4.35;;
21630;SDS011;10977;46.802;11.952;2022-10-16T14:44:45;5.05;;;4.65;;
21630;SDS011;10977;46.802;11.952;2022-10-16T14:47:19;8.63;;;4.60;;
21630;SDS011;10977;46.802;11.952;2022-10-16T14:49:49;4.60;;;4.20;;
21630;SDS011;10977;46.802;11.952;2022-10-16T14:52:15;4.80;;;4.20;;
21630;SDS011;10977;46.802;11.952;2022-10-16T14:54:41;4.57;;;4.18;;
21630;SDS011;10977;46.802;11.952;2022-10-16T14:57:15;5.55;;;4.95;;
21630;SDS011;10977;46.802;11.952;2022-10-16T14:59:43;6.22;;;5.03;;
21630;SDS011;10977;46.802;11.952;2022-10-16T15:02:20;5.47;;;4.97;;
21630;SDS011;10977;46.802;11.952;2022-10-16T15:05:07;5.03;;;4.63;;
21630;SDS011;10977;46.802;11.952;2022-10-16T15:07:37;5.13;;;4.72;;
21630;SDS011;10977;46.802;11.952;2022-10-16T15:10:02;5.63;;;5.13;;
21630;SDS011;10977;46.802;11.952;2022-10-16T15:12:28;5.28;;;4.78;;
21630;SDS011;10977;46.802;11.952;2022-10-16T15:14:53;8.27;;;5.07;;
21630;SDS011;10977;46.802;11.952;2022-10-16T15:17:19;7.88;;;5.45;;
21630;SDS011;10977;46.802;11.952;2022-10-16T15:19:44;6.88;;;5.90;;
21630;SDS011;10977;46.802;11.952;2022-10-16T15:22:10;7.25;;;5.88;;
21630;SDS011;10977;46.802;11.952;2022-10-16T15:24:36;6.50;;;5.82;;
21630;SDS011;10977;46.802;11.952;2022-10-16T15:27:01;5.38;;;4.88;;
21630;SDS011;10977;46.802;11.952;2022-10-16T15:29:27;6.30;;;5.70;;
21630;SDS011;10977;46.802;11.952;2022-10-16T15:31:52;6.95;;;5.65;;
21630;SDS011;10977;46.802;11.952;2022-10-16T15:34:17;6.47;;;5.88;;
21630;SDS011;10977;46.802;11.952;2022-10-16T15:36:44;6.85;;;6.13;;
21630;SDS011;10977;46.802;11.952;2022-10-16T15:39:13;6.57;;;5.97;;
21630;SDS011;10977;46.802;11.952;2022-10-16T15:41:44;6.20;;;5.55;;
21630;SDS011;10977;46.802;11.952;2022-10-16T15:44:15;6.45;;;5.70;;
21630;SDS011;10977;46.802;11.952;2022-10-16T15:46:41;14.10;;;12.65;;
21630;SDS011;10977;46.802;11.952;2022-10-16T15:49:06;7.85;;;7.05;;
21630;SDS011;10977;46.802;11.952;2022-10-16T15:51:31;7.43;;;6.72;;
21630;SDS011;10977;46.802;11.952;2022-10-16T15:53:58;7.03;;;6.30;;
21630;SDS011;10977;46.802;11.952;2022-10-16T15:56:26;8.25;;;6.07;;
21630;SDS011;10977;46.802;11.952;2022-10-16T15:58:53;7.47;;;6.05;;
21630;SDS011;10977;46.802;11.952;2022-10-16T16:01:20;7.55;;;5.97;;
21630;SDS011;10977;46.802;11.952;2022-10-16T16:03:46;7.82;;;6.68;;
21630;SDS011;10977;46.802;11.952;2022-10-16T16:06:12;7.55;;;6.50;;
21630;SDS011;10977;46.802;11.952;2022-10-16T16:08:38;6.93;;;6.32;;
21630;SDS011;10977;46.802;11.952;2022-10-16T16:11:06;7.00;;;6.30;;
21630;SDS011;10977;46.802;11.952;2022-10-16T16:13:32;6.88;;;6.18;;
21630;SDS011;10977;46.802;11.952;2022-10-16T16:15:58;7.47;;;6.03;;
21630;SDS011;10977;46.802;11.952;2022-10-16T16:18:24;9.52;;;6.28;;
21630;SDS011;10977;46.802;11.952;2022-10-16T16:20:50;9.27;;;6.07;;
21630;SDS011;10977;46.802;11.952;2022-10-16T16:23:16;6.95;;;6.25;;
21630;SDS011;10977;46.802;11.952;2022-10-16T16:25:41;8.32;;;6.85;;
21630;SDS011;10977;46.802;11.952;2022-10-16T16:28:06;9.07;;;8.02;;
21630;SDS011;10977;46.802;11.952;2022-10-16T16:30:32;9.63;;;8.02;;
21630;SDS011;10977;46.802;11.952;2022-10-16T16:32:57;8.95;;;8.00;;
21630;SDS011;10977;46.802;11.952;2022-10-16T16:35:23;9.00;;;7.30;;
21630;SDS011;10977;46.802;11.952;2022-10-16T16:37:48;10.93;;;7.30;;
21630;SDS011;10977;46.802;11.952;2022-10-16T16:40:13;9.45;;;8.10;;